createdAt,value
2023-03-30T00:01:12.226Z,10.30
2023-03-30T00:03:41.051Z,10.27
2023-03-30T00:06:12.504Z,10.23
2023-03-30T00:08:40.965Z,10.19
2023-03-30T00:11:11.994Z,10.17
2023-03-30T00:13:40.838Z,10.15
2023-03-30T00:16:11.485Z,10.13
2023-03-30T00:18:40.608Z,10.11
2023-03-30T00:21:11.262Z,10.07
2023-03-30T00:23:39.633Z,10.05
2023-03-30T00:26:09.010Z,10.03
2023-03-30T00:28:37.107Z,10.00
2023-03-30T00:31:05.552Z,9.99
2023-03-30T00:33:44.937Z,9.97
2023-03-30T00:36:17.709Z,9.94
2023-03-30T00:38:48.511Z,9.90
2023-03-30T00:41:17.871Z,9.82
2023-03-30T00:43:57.725Z,9.73
2023-03-30T00:46:25.969Z,9.69
2023-03-30T00:48:58.888Z,9.66
2023-03-30T00:51:29.960Z,9.64
2023-03-30T00:54:05.739Z,9.65
2023-03-30T00:56:34.774Z,9.64
2023-03-30T00:59:04.304Z,9.62
2023-03-30T01:01:38.841Z,9.58
2023-03-30T01:04:10.054Z,9.52
2023-03-30T01:06:43.549Z,9.47
2023-03-30T01:09:12.185Z,9.46
2023-03-30T01:11:40.424Z,9.46
2023-03-30T01:14:12.531Z,9.48
2023-03-30T01:16:47.798Z,9.49
2023-03-30T01:19:50.513Z,9.52
2023-03-30T01:22:47.129Z,9.52
2023-03-30T01:25:59.584Z,9.52
2023-03-30T01:28:37.910Z,9.51
2023-03-30T01:31:25.793Z,9.50
2023-03-30T01:34:11.228Z,9.46
2023-03-30T01:37:20.324Z,9.44
2023-03-30T01:39:56.901Z,9.46
2023-03-30T01:42:34.143Z,9.44
2023-03-30T01:45:11.206Z,9.42
2023-03-30T01:47:45.608Z,9.39
2023-03-30T01:50:17.508Z,9.36
2023-03-30T01:52:55.705Z,9.33
2023-03-30T01:55:30.012Z,9.31
2023-03-30T01:58:02.864Z,9.28
2023-03-30T02:00:32.280Z,9.25
2023-03-30T02:03:06.007Z,9.25
2023-03-30T02:05:35.894Z,9.27
2023-03-30T02:08:09.563Z,9.25
2023-03-30T02:10:42.255Z,9.20
2023-03-30T02:13:11.555Z,9.16
2023-03-30T02:15:47.262Z,9.11
2023-03-30T02:18:15.577Z,9.09
2023-03-30T02:20:43.913Z,9.04
2023-03-30T02:23:13.670Z,9.00
2023-03-30T02:25:43.690Z,8.97
2023-03-30T02:28:14.221Z,8.91
2023-03-30T02:30:45.502Z,8.87
2023-03-30T02:33:22.085Z,8.80
2023-03-30T02:36:16.612Z,8.75
2023-03-30T02:39:06.737Z,8.68
2023-03-30T02:42:07.157Z,8.63
2023-03-30T02:44:44.291Z,8.54
2023-03-30T02:47:19.955Z,8.48
2023-03-30T02:49:57.186Z,8.42
2023-03-30T02:52:39.035Z,8.37
2023-03-30T02:55:15.255Z,8.32
2023-03-30T02:57:56.562Z,8.28
2023-03-30T03:00:29.106Z,8.23
2023-03-30T03:03:01.618Z,8.21
2023-03-30T03:05:32.630Z,8.19
2023-03-30T03:08:00.815Z,8.16
2023-03-30T03:10:28.953Z,8.13
2023-03-30T03:12:58.633Z,8.12
2023-03-30T03:15:26.819Z,8.09
2023-03-30T03:17:55.186Z,8.06
2023-03-30T03:20:23.252Z,8.04
2023-03-30T03:22:51.636Z,8.01
2023-03-30T03:25:19.707Z,7.99
2023-03-30T03:27:48.141Z,7.97
2023-03-30T03:30:17.885Z,7.93
2023-03-30T03:32:46.307Z,7.89
2023-03-30T03:35:15.176Z,7.86
2023-03-30T03:37:44.747Z,7.83
2023-03-30T03:40:13.327Z,7.79
2023-03-30T03:42:41.489Z,7.76
2023-03-30T03:45:10.574Z,7.71
2023-03-30T03:47:40.432Z,7.69
2023-03-30T03:50:09.850Z,7.67
2023-03-30T03:52:38.200Z,7.65
2023-03-30T03:55:08.038Z,7.63
2023-03-30T03:57:36.917Z,7.61
2023-03-30T04:00:05.872Z,7.57
2023-03-30T04:02:34.445Z,7.55
2023-03-30T04:05:04.599Z,7.54
2023-03-30T04:07:34.406Z,7.52
2023-03-30T04:10:02.773Z,7.50
2023-03-30T04:12:31.260Z,7.48
2023-03-30T04:15:00.591Z,7.47
2023-03-30T04:17:28.975Z,7.47
2023-03-30T04:19:57.114Z,7.46
2023-03-30T04:22:27.020Z,7.43
2023-03-30T04:24:55.770Z,7.40
2023-03-30T04:27:26.090Z,7.38
2023-03-30T04:29:57.793Z,7.38
2023-03-30T04:32:26.260Z,7.35
2023-03-30T04:34:54.927Z,7.31
2023-03-30T04:37:30.639Z,7.28
2023-03-30T04:40:00.847Z,7.23
2023-03-30T04:42:30.396Z,7.24
2023-03-30T04:44:58.783Z,7.24
2023-03-30T04:47:27.247Z,7.20
2023-03-30T04:49:55.464Z,7.17
2023-03-30T04:52:24.426Z,7.15
2023-03-30T04:54:52.542Z,7.13
2023-03-30T04:57:22.597Z,7.13
2023-03-30T04:59:51.465Z,7.11
2023-03-30T05:02:19.569Z,7.08
2023-03-30T05:04:48.189Z,7.05
2023-03-30T05:07:17.522Z,7.02
2023-03-30T05:09:45.648Z,6.98
2023-03-30T05:12:13.954Z,6.95
2023-03-30T05:14:44.073Z,6.91
2023-03-30T05:17:12.025Z,6.90
2023-03-30T05:19:40.249Z,6.88
2023-03-30T05:22:08.597Z,6.87
2023-03-30T05:24:36.908Z,6.84
2023-03-30T05:27:07.036Z,6.80
2023-03-30T05:29:35.295Z,6.79
2023-03-30T05:32:05.220Z,6.77
2023-03-30T05:34:33.548Z,6.74
2023-03-30T05:37:01.957Z,6.70
2023-03-30T05:39:30.490Z,6.68
2023-03-30T05:41:58.933Z,6.64
2023-03-30T05:44:27.364Z,6.61
2023-03-30T05:46:55.830Z,6.58
2023-03-30T05:49:27.700Z,6.57
2023-03-30T05:51:56.409Z,6.54
2023-03-30T05:54:26.585Z,6.54
2023-03-30T05:56:54.515Z,6.57
2023-03-30T05:59:23.382Z,6.59
2023-03-30T06:01:51.668Z,6.55
2023-03-30T06:04:19.922Z,6.56
2023-03-30T06:06:49.647Z,6.53
2023-03-30T06:09:18.944Z,6.53
2023-03-30T06:11:47.322Z,6.52
2023-03-30T06:14:15.924Z,6.51
2023-03-30T06:16:44.365Z,6.49
2023-03-30T06:19:23.289Z,6.47
2023-03-30T06:21:54.633Z,6.47
2023-03-30T06:24:22.945Z,6.48
2023-03-30T06:26:51.596Z,6.50
2023-03-30T06:29:20.790Z,6.51
2023-03-30T06:31:49.260Z,6.55
2023-03-30T06:34:17.802Z,6.57
2023-03-30T06:36:50.790Z,6.60
2023-03-30T06:39:22.035Z,6.63
2023-03-30T06:41:52.118Z,6.66
2023-03-30T06:44:20.389Z,6.73
2023-03-30T06:46:48.811Z,6.83
2023-03-30T06:49:46.358Z,6.99
2023-03-30T06:52:14.512Z,7.24
2023-03-30T06:54:51.332Z,7.52
2023-03-30T06:57:21.227Z,7.79
2023-03-30T06:59:49.574Z,8.03
2023-03-30T07:02:18.119Z,8.16
2023-03-30T07:04:47.101Z,8.32
2023-03-30T07:07:15.685Z,8.49
2023-03-30T07:09:45.446Z,8.68
2023-03-30T07:12:23.152Z,8.90
2023-03-30T07:14:54.567Z,9.04
2023-03-30T07:17:26.911Z,9.10
2023-03-30T07:19:56.147Z,9.13
2023-03-30T07:22:24.812Z,9.16
2023-03-30T07:25:05.936Z,9.05
2023-03-30T07:27:36.315Z,9.14
2023-03-30T07:30:21.180Z,9.44
2023-03-30T07:32:51.650Z,9.73
2023-03-30T07:35:22.948Z,9.96
2023-03-30T07:37:51.736Z,10.11
2023-03-30T07:40:21.934Z,10.13
2023-03-30T07:42:50.804Z,10.18
2023-03-30T07:45:35.543Z,10.21
2023-03-30T07:48:03.910Z,10.21
2023-03-30T07:50:34.241Z,10.17
2023-03-30T07:53:28.301Z,10.24
2023-03-30T07:55:57.839Z,10.39
2023-03-30T07:58:58.999Z,10.46
2023-03-30T08:01:39.746Z,10.54
2023-03-30T08:04:16.560Z,10.64
2023-03-30T08:06:50.998Z,10.68
2023-03-30T08:09:26.062Z,10.83
2023-03-30T08:11:59.353Z,10.89
2023-03-30T08:14:37.937Z,10.90
2023-03-30T08:17:06.561Z,11.03
2023-03-30T08:19:34.751Z,11.12
2023-03-30T08:22:03.427Z,11.17
2023-03-30T08:24:32.120Z,11.18
2023-03-30T08:27:02.024Z,11.19
2023-03-30T08:29:31.599Z,11.18
2023-03-30T08:31:59.813Z,11.16
2023-03-30T08:34:29.249Z,11.11
2023-03-30T08:36:58.258Z,11.12
2023-03-30T08:39:26.601Z,11.09
2023-03-30T08:42:27.768Z,11.11
2023-03-30T08:45:03.334Z,11.14
2023-03-30T08:47:34.908Z,11.19
2023-03-30T08:50:08.687Z,11.26
2023-03-30T08:52:38.166Z,11.31
2023-03-30T08:55:07.201Z,11.27
2023-03-30T08:57:47.303Z,11.16
2023-03-30T09:00:27.712Z,11.10
2023-03-30T09:03:07.590Z,11.12
2023-03-30T09:05:40.864Z,11.20
2023-03-30T09:08:16.778Z,11.37
2023-03-30T09:10:49.257Z,11.51
2023-03-30T09:13:22.246Z,11.71
2023-03-30T09:15:54.969Z,11.78
2023-03-30T09:18:42.543Z,11.84
2023-03-30T09:21:14.167Z,11.71
2023-03-30T09:23:42.731Z,11.75
2023-03-30T09:26:20.444Z,11.72
2023-03-30T09:28:57.256Z,11.72
2023-03-30T09:31:34.329Z,11.80
2023-03-30T09:34:08.781Z,11.89
2023-03-30T09:36:44.677Z,12.05
2023-03-30T09:39:18.735Z,12.17
2023-03-30T09:42:13.061Z,12.55
2023-03-30T09:44:47.416Z,12.94
2023-03-30T09:47:24.707Z,13.01
2023-03-30T09:50:04.598Z,13.07
2023-03-30T09:52:37.188Z,13.28
2023-03-30T09:55:28.270Z,13.33
2023-03-30T09:58:12.278Z,13.60
2023-03-30T10:00:44.796Z,14.06
2023-03-30T10:03:22.243Z,14.23
2023-03-30T10:06:03.359Z,14.67
2023-03-30T10:08:32.924Z,15.03
2023-03-30T10:11:04.308Z,15.02
2023-03-30T10:13:36.612Z,15.03
2023-03-30T10:16:09.462Z,14.94
2023-03-30T10:18:42.316Z,15.01
2023-03-30T10:21:19.433Z,14.82
2023-03-30T10:23:49.974Z,14.83
2023-03-30T10:26:20.685Z,14.99
2023-03-30T10:28:57.364Z,15.06
2023-03-30T10:31:28.476Z,14.99
2023-03-30T10:34:01.672Z,14.81
2023-03-30T10:36:33.016Z,14.86
2023-03-30T10:39:16.665Z,15.11
2023-03-30T10:41:45.729Z,15.14
2023-03-30T10:44:23.580Z,14.96
2023-03-30T10:46:58.692Z,14.89
2023-03-30T10:49:41.262Z,14.78
2023-03-30T10:52:20.546Z,15.04
2023-03-30T10:54:56.968Z,14.90
2023-03-30T10:57:38.757Z,14.96
2023-03-30T11:00:43.886Z,15.38
2023-03-30T11:03:20.072Z,15.79
2023-03-30T11:05:52.887Z,15.45
2023-03-30T11:08:25.539Z,14.96
2023-03-30T11:11:45.439Z,14.76
2023-03-30T11:14:28.812Z,15.16
2023-03-30T11:17:01.224Z,15.68
2023-03-30T11:19:36.321Z,16.07
2023-03-30T11:22:11.152Z,16.28
2023-03-30T11:24:44.031Z,16.28
2023-03-30T11:27:18.574Z,16.37
2023-03-30T11:29:51.542Z,16.44
2023-03-30T11:32:33.589Z,16.00
2023-03-30T11:35:13.077Z,15.74
2023-03-30T11:37:48.142Z,15.38
2023-03-30T11:40:19.582Z,15.38
2023-03-30T11:42:48.824Z,15.56
2023-03-30T11:45:39.653Z,15.80
2023-03-30T11:48:29.261Z,15.94
2023-03-30T11:51:23.649Z,15.81
2023-03-30T11:54:00.238Z,15.86
2023-03-30T11:56:37.158Z,16.10
2023-03-30T11:59:07.214Z,16.30
2023-03-30T12:01:50.394Z,16.38
2023-03-30T12:04:25.865Z,16.50
2023-03-30T12:07:00.550Z,16.98
2023-03-30T12:09:33.715Z,17.31
2023-03-30T12:12:15.823Z,17.58
2023-03-30T12:14:56.767Z,17.34
2023-03-30T12:17:34.468Z,16.74
2023-03-30T12:20:14.468Z,16.19
2023-03-30T12:22:49.282Z,15.74
2023-03-30T12:25:33.973Z,15.40
2023-03-30T12:28:12.762Z,15.37
2023-03-30T12:31:06.212Z,15.64
2023-03-30T12:33:37.658Z,15.58
2023-03-30T12:36:27.347Z,15.37
2023-03-30T12:39:02.668Z,15.21
2023-03-30T12:41:41.515Z,15.05
2023-03-30T12:44:40.566Z,15.14
2023-03-30T12:47:41.323Z,15.45
2023-03-30T12:50:29.097Z,15.79
2023-03-30T12:53:17.298Z,16.03
2023-03-30T12:55:54.259Z,16.20
2023-03-30T12:58:56.236Z,16.43
2023-03-30T13:01:46.932Z,16.32
2023-03-30T13:04:23.224Z,16.60
2023-03-30T13:06:56.970Z,17.00
2023-03-30T13:09:54.834Z,17.07
2023-03-30T13:12:34.224Z,16.67
2023-03-30T13:15:07.069Z,16.35
2023-03-30T13:17:59.194Z,16.31
2023-03-30T13:20:34.118Z,16.35
2023-03-30T13:23:25.059Z,16.44
2023-03-30T13:26:04.404Z,16.63
2023-03-30T13:28:38.338Z,16.79
2023-03-30T13:31:18.558Z,16.78
2023-03-30T13:33:51.005Z,16.50
2023-03-30T13:36:25.864Z,16.14
2023-03-30T13:39:14.940Z,15.72
2023-03-30T13:41:55.502Z,15.41
2023-03-30T13:44:46.941Z,15.20
2023-03-30T13:47:41.484Z,15.11
2023-03-30T13:50:18.549Z,15.11
2023-03-30T13:52:49.655Z,15.03
2023-03-30T13:55:20.723Z,14.85
2023-03-30T13:57:49.290Z,14.76
2023-03-30T14:00:34.344Z,14.76
2023-03-30T14:03:34.739Z,14.71
2023-03-30T14:06:11.394Z,15.07
2023-03-30T14:08:48.693Z,15.68
2023-03-30T14:11:22.397Z,16.31
2023-03-30T14:13:55.432Z,16.57
2023-03-30T14:16:27.533Z,16.73
2023-03-30T14:19:09.829Z,16.79
2023-03-30T14:21:39.262Z,17.00
2023-03-30T14:24:13.504Z,17.22
2023-03-30T14:26:44.043Z,17.46
2023-03-30T14:29:30.372Z,17.40
2023-03-30T14:32:08.632Z,17.33
2023-03-30T14:34:43.003Z,17.02
2023-03-30T14:37:14.411Z,16.97
2023-03-30T14:39:49.661Z,16.82
2023-03-30T14:42:19.412Z,16.68
2023-03-30T14:44:49.897Z,16.70
2023-03-30T14:47:22.784Z,16.77
2023-03-30T14:49:53.945Z,16.81
2023-03-30T14:52:24.213Z,16.76
2023-03-30T14:55:05.985Z,16.46
2023-03-30T14:57:39.592Z,16.12
2023-03-30T15:00:18.723Z,16.01
2023-03-30T15:02:50.301Z,16.34
2023-03-30T15:05:19.217Z,16.64
2023-03-30T15:07:49.279Z,16.59
2023-03-30T15:10:28.837Z,16.42
2023-03-30T15:13:19.994Z,16.39
2023-03-30T15:15:48.936Z,17.02
2023-03-30T15:18:24.886Z,17.43
2023-03-30T15:20:54.541Z,17.58
2023-03-30T15:23:27.704Z,17.73
2023-03-30T15:26:03.323Z,17.98
2023-03-30T15:28:35.216Z,18.14
2023-03-30T15:31:03.762Z,18.20
2023-03-30T15:33:46.092Z,18.45
2023-03-30T15:36:31.580Z,18.60
2023-03-30T15:39:02.272Z,19.02
2023-03-30T15:41:47.245Z,18.99
2023-03-30T15:44:20.265Z,18.60
2023-03-30T15:46:51.261Z,18.48
2023-03-30T15:49:23.698Z,18.37
2023-03-30T15:51:57.451Z,18.54
2023-03-30T15:54:32.153Z,18.71
2023-03-30T15:57:05.014Z,18.80
2023-03-30T15:59:37.806Z,18.82
2023-03-30T16:02:16.293Z,18.43
2023-03-30T16:04:49.138Z,18.00
2023-03-30T16:07:31.764Z,17.86
2023-03-30T16:09:59.929Z,18.17
2023-03-30T16:12:33.025Z,18.27
2023-03-30T16:15:01.524Z,18.23
2023-03-30T16:17:29.775Z,17.93
2023-03-30T16:19:59.524Z,17.45
2023-03-30T16:22:27.582Z,17.06
2023-03-30T16:24:56.331Z,17.18
2023-03-30T16:27:29.303Z,17.64
2023-03-30T16:29:57.577Z,17.79
2023-03-30T16:32:30.021Z,17.69
2023-03-30T16:35:07.716Z,17.77
2023-03-30T16:37:39.689Z,17.67
2023-03-30T16:40:21.710Z,17.32
2023-03-30T16:42:49.963Z,17.01
2023-03-30T16:45:34.750Z,16.91
2023-03-30T16:48:04.506Z,17.12
2023-03-30T16:50:39.548Z,17.32
2023-03-30T16:53:08.874Z,17.34
2023-03-30T16:55:38.184Z,17.23
2023-03-30T16:58:06.779Z,17.17
2023-03-30T17:00:39.208Z,17.12
2023-03-30T17:03:07.552Z,16.94
2023-03-30T17:05:37.713Z,16.83
2023-03-30T17:08:07.026Z,16.65
2023-03-30T17:10:37.791Z,16.57
2023-03-30T17:13:05.929Z,16.46
2023-03-30T17:15:35.260Z,16.39
2023-03-30T17:18:06.181Z,16.45
2023-03-30T17:20:40.957Z,16.57
2023-03-30T17:23:10.648Z,16.47
2023-03-30T17:25:40.194Z,16.10
2023-03-30T17:28:09.822Z,15.82
2023-03-30T17:30:40.591Z,15.45
2023-03-30T17:33:11.009Z,15.09
2023-03-30T17:35:41.033Z,14.67
2023-03-30T17:38:09.899Z,14.35
2023-03-30T17:40:42.521Z,14.09
2023-03-30T17:43:11.645Z,13.90
2023-03-30T17:45:40.464Z,13.80
2023-03-30T17:48:13.206Z,13.69
2023-03-30T17:50:46.106Z,13.56
2023-03-30T17:53:16.762Z,13.40
2023-03-30T17:55:46.553Z,13.35
2023-03-30T17:58:20.442Z,13.26
2023-03-30T18:00:49.581Z,13.15
2023-03-30T18:03:19.612Z,13.06
2023-03-30T18:05:50.357Z,12.89
2023-03-30T18:08:21.473Z,12.67
2023-03-30T18:10:51.727Z,12.48
2023-03-30T18:13:20.236Z,12.37
2023-03-30T18:15:49.943Z,12.33
2023-03-30T18:18:23.004Z,12.22
2023-03-30T18:20:54.033Z,12.10
2023-03-30T18:23:22.603Z,11.94
2023-03-30T18:25:52.584Z,11.83
2023-03-30T18:28:22.341Z,11.68
2023-03-30T18:30:51.148Z,11.50
2023-03-30T18:33:19.332Z,11.41
2023-03-30T18:35:49.393Z,11.29
2023-03-30T18:38:20.768Z,11.16
2023-03-30T18:40:52.090Z,11.01
2023-03-30T18:43:20.490Z,10.86
2023-03-30T18:45:50.525Z,10.80
2023-03-30T18:48:22.091Z,10.73
2023-03-30T18:50:52.283Z,10.65
2023-03-30T18:53:22.973Z,10.58
2023-03-30T18:55:52.887Z,10.54
2023-03-30T18:58:23.234Z,10.52
2023-03-30T19:00:52.738Z,10.48
2023-03-30T19:03:21.803Z,10.42
2023-03-30T19:05:51.329Z,10.42
2023-03-30T19:08:23.028Z,10.43
2023-03-30T19:11:00.725Z,10.35
2023-03-30T19:13:28.828Z,10.37
2023-03-30T19:15:58.088Z,10.37
2023-03-30T19:18:27.163Z,10.41
2023-03-30T19:20:55.741Z,10.45
2023-03-30T19:23:25.398Z,10.49
2023-03-30T19:25:53.742Z,10.52
2023-03-30T19:28:21.891Z,10.58
2023-03-30T19:30:50.256Z,10.61
2023-03-30T19:33:20.898Z,10.59
2023-03-30T19:35:49.629Z,10.52
2023-03-30T19:38:17.678Z,10.45
2023-03-30T19:40:47.481Z,10.38
2023-03-30T19:43:16.256Z,10.36
2023-03-30T19:45:44.370Z,10.33
2023-03-30T19:48:12.503Z,10.36
2023-03-30T19:50:40.813Z,10.40
2023-03-30T19:53:09.206Z,10.35
2023-03-30T19:55:37.927Z,10.34
2023-03-30T19:58:07.551Z,10.31
2023-03-30T20:00:35.719Z,10.30
2023-03-30T20:03:04.076Z,10.28
2023-03-30T20:05:32.330Z,10.19
2023-03-30T20:08:10.557Z,10.16
2023-03-30T20:10:49.315Z,10.15
2023-03-30T20:13:22.083Z,10.13
2023-03-30T20:15:54.739Z,10.16
2023-03-30T20:18:23.058Z,10.21
2023-03-30T20:20:51.158Z,10.18
2023-03-30T20:23:21.031Z,10.17
2023-03-30T20:25:50.741Z,10.18
2023-03-30T20:28:20.440Z,10.21
2023-03-30T20:30:50.640Z,10.21
2023-03-30T20:33:19.701Z,10.26
2023-03-30T20:35:47.854Z,10.29
2023-03-30T20:38:17.889Z,10.30
2023-03-30T20:41:02.067Z,10.35
2023-03-30T20:43:35.043Z,10.36
2023-03-30T20:46:15.351Z,10.37
2023-03-30T20:48:45.114Z,10.38
2023-03-30T20:51:15.751Z,10.35
2023-03-30T20:53:43.827Z,10.34
2023-03-30T20:56:15.089Z,10.34
2023-03-30T20:58:47.828Z,10.34
2023-03-30T21:01:18.291Z,10.31
2023-03-30T21:03:50.176Z,10.27
2023-03-30T21:06:19.912Z,10.25
2023-03-30T21:08:48.169Z,10.25
2023-03-30T21:11:16.422Z,10.21
2023-03-30T21:13:46.207Z,10.18
2023-03-30T21:16:14.802Z,10.18
2023-03-30T21:18:42.993Z,10.17
2023-03-30T21:21:11.217Z,10.15
2023-03-30T21:23:40.178Z,10.10
2023-03-30T21:26:09.668Z,10.05
2023-03-30T21:28:38.710Z,9.99
2023-03-30T21:31:09.904Z,9.96
2023-03-30T21:33:39.524Z,9.91
2023-03-30T21:36:09.053Z,9.88
2023-03-30T21:38:37.899Z,9.85
2023-03-30T21:41:07.832Z,9.83
2023-03-30T21:43:38.053Z,9.81
2023-03-30T21:46:08.406Z,9.81
2023-03-30T21:48:40.185Z,9.80
2023-03-30T21:51:11.710Z,9.78
2023-03-30T21:53:40.716Z,9.74
2023-03-30T21:56:11.623Z,9.70
2023-03-30T21:58:40.329Z,9.69
2023-03-30T22:01:12.631Z,9.67
2023-03-30T22:03:42.157Z,9.63
2023-03-30T22:06:13.538Z,9.63
2023-03-30T22:08:41.918Z,9.63
2023-03-30T22:11:12.859Z,9.63
2023-03-30T22:13:41.312Z,9.60
2023-03-30T22:16:13.900Z,9.59
2023-03-30T22:18:42.459Z,9.64
2023-03-30T22:21:15.025Z,9.66
2023-03-30T22:23:43.455Z,9.66
2023-03-30T22:26:12.758Z,9.68
2023-03-30T22:28:41.332Z,9.68
2023-03-30T22:31:12.597Z,9.66
2023-03-30T22:33:41.174Z,9.62
2023-03-30T22:36:17.007Z,9.62
2023-03-30T22:38:45.702Z,9.59
2023-03-30T22:41:14.793Z,9.57
2023-03-30T22:43:43.149Z,9.60
2023-03-30T22:46:12.926Z,9.56
2023-03-30T22:48:42.711Z,9.53
2023-03-30T22:51:14.456Z,9.49
2023-03-30T22:53:42.935Z,9.47
2023-03-30T22:56:11.889Z,9.41
2023-03-30T22:58:39.962Z,9.34
2023-03-30T23:01:10.476Z,9.24
2023-03-30T23:03:40.440Z,9.17
2023-03-30T23:06:09.452Z,9.16
2023-03-30T23:08:39.450Z,9.13
2023-03-30T23:11:08.447Z,9.09
2023-03-30T23:13:38.413Z,9.08
2023-03-30T23:16:08.399Z,9.08
2023-03-30T23:18:36.555Z,9.07
2023-03-30T23:21:07.970Z,9.06
2023-03-30T23:23:37.190Z,9.04
2023-03-30T23:26:09.269Z,9.05
2023-03-30T23:28:40.600Z,9.03
2023-03-30T23:31:09.689Z,9.04
2023-03-30T23:33:37.852Z,9.03
2023-03-30T23:36:08.564Z,9.03
2023-03-30T23:38:39.680Z,9.02
2023-03-30T23:41:11.947Z,8.98
2023-03-30T23:43:40.205Z,8.96
2023-03-30T23:46:10.018Z,8.94
2023-03-30T23:48:38.542Z,8.93
2023-03-30T23:51:08.862Z,8.89
2023-03-30T23:53:40.451Z,8.89
2023-03-30T23:56:13.136Z,8.87
2023-03-30T23:58:44.491Z,8.86
